Time;durP1;ratioP1;P1;durP2;ratioP2;P2;SDS_P1;SDS_P2;PMS_P1;PMS_P2;Temp;Humidity;BMP_temperature;BMP_pressure;BME280_temperature;BME280_humidity;BME280_pressure;Samples;Min_cycle;Max_cycle;Signal;HPM_P1;HPM_P2
2021/12/20 00:01:58;;;;;;;16.40;14.70;;;4.80;68.90;;;;;;4971050;28;20547;-79
2021/12/20 00:04:24;;;;;;;16.83;15.00;;;4.80;68.20;;;;;;4971812;28;20425;-81
2021/12/20 00:06:49;;;;;;;18.30;16.20;;;4.80;67.50;;;;;;4971493;28;20414;-80
2021/12/20 00:09:15;;;;;;;17.77;16.00;;;4.80;67.70;;;;;;4970960;28;20433;-81
2021/12/20 00:11:41;;;;;;;17.33;15.57;;;4.80;67.90;;;;;;4970997;28;20189;-81
2021/12/20 00:14:07;;;;;;;17.90;16.03;;;4.80;68.10;;;;;;4972453;28;20446;-83
2021/12/20 00:16:33;;;;;;;18.03;16.13;;;4.80;67.90;;;;;;4971000;28;20417;-81
2021/12/20 00:18:58;;;;;;;18.33;16.37;;;4.80;68.20;;;;;;4971335;28;20710;-80
2021/12/20 00:21:24;;;;;;;15.67;14.10;;;4.80;68.20;;;;;;4970492;28;20198;-80
2021/12/20 00:23:50;;;;;;;17.37;15.10;;;4.80;68.30;;;;;;4970451;28;20179;-80
2021/12/20 00:26:15;;;;;;;17.70;14.93;;;4.80;68.80;;;;;;4970950;28;20177;-82
2021/12/20 00:28:41;;;;;;;17.40;14.50;;;4.80;68.20;;;;;;4971199;28;20177;-83
2021/12/20 00:31:07;;;;;;;18.03;15.83;;;4.80;67.50;;;;;;4970163;28;20189;-81
2021/12/20 00:33:33;;;;;;;17.10;15.40;;;4.80;68.30;;;;;;4970642;28;20189;-81
2021/12/20 00:36:08;;;;;;;16.83;15.13;;;4.80;68.30;;;;;;4970727;28;20419;-81
2021/12/20 00:41:20;;;;;;;16.17;14.57;;;4.80;67.60;;;;;;4970939;28;20464;-82
2021/12/20 00:43:46;;;;;;;18.23;16.30;;;4.80;67.90;;;;;;4970514;28;20422;-82
2021/12/20 00:46:11;;;;;;;17.03;15.20;;;4.80;68.90;;;;;;4970538;28;20222;-82
2021/12/20 00:48:37;;;;;;;18.17;15.77;;;4.70;67.90;;;;;;4970099;28;20170;-81
2021/12/20 00:51:03;;;;;;;17.37;15.60;;;4.80;68.20;;;;;;4970337;28;20184;-81
2021/12/20 00:53:29;;;;;;;17.50;15.70;;;4.80;68.50;;;;;;4970433;28;20627;-81
2021/12/20 00:55:54;;;;;;;17.87;15.83;;;4.80;69.20;;;;;;4970355;28;20186;-81
2021/12/20 00:58:20;;;;;;;17.03;15.33;;;4.80;68.70;;;;;;4970004;28;20180;-81
2021/12/20 01:00:51;;;;;;;20.97;16.00;;;4.80;68.30;;;;;;4969374;28;20605;-81
2021/12/20 01:03:18;;;;;;;20.60;17.30;;;4.80;68.20;;;;;;4969921;28;20575;-81
2021/12/20 01:05:44;;;;;;;19.70;17.30;;;4.80;68.40;;;;;;4970103;28;20422;-81
2021/12/20 01:08:10;;;;;;;18.50;16.23;;;4.90;67.60;;;;;;4969500;28;20487;-81
2021/12/20 01:10:39;;;;;;;19.67;16.47;;;4.80;67.70;;;;;;4969475;28;20186;-80
2021/12/20 01:13:06;;;;;;;17.80;15.60;;;4.80;68.20;;;;;;4969776;28;20553;-81
2021/12/20 01:15:39;;;;;;;20.80;15.73;;;4.80;68.50;;;;;;4970408;28;20437;-81
2021/12/20 01:18:07;;;;;;;17.20;15.37;;;4.90;67.60;;;;;;4970102;28;20421;-80
2021/12/20 01:20:35;;;;;;;17.60;15.40;;;4.80;66.50;;;;;;4969421;28;20505;-80
2021/12/20 01:23:00;;;;;;;19.70;16.77;;;4.80;66.90;;;;;;4968938;28;20464;-81
2021/12/20 01:25:26;;;;;;;18.93;16.73;;;4.80;67.00;;;;;;4968860;28;20461;-80
2021/12/20 01:27:52;;;;;;;19.10;17.13;;;4.80;66.90;;;;;;4969458;28;20186;-80
2021/12/20 01:30:20;;;;;;;19.60;16.93;;;4.90;66.80;;;;;;4969419;28;20175;-81
2021/12/20 01:32:46;;;;;;;20.33;16.40;;;4.90;66.70;;;;;;4969368;28;20481;-80
2021/12/20 01:35:12;;;;;;;17.40;15.60;;;4.80;66.40;;;;;;4969037;28;20481;-80
2021/12/20 01:37:38;;;;;;;20.87;18.53;;;4.80;67.50;;;;;;4969113;28;20957;-80
2021/12/20 01:40:06;;;;;;;17.40;15.13;;;4.80;67.50;;;;;;4968733;28;20527;-80
2021/12/20 01:42:34;;;;;;;19.00;15.93;;;4.80;67.30;;;;;;4968836;28;20426;-80
2021/12/20 01:45:00;;;;;;;20.07;17.30;;;4.70;67.40;;;;;;4968193;28;20422;-81
2021/12/20 01:47:30;;;;;;;18.87;16.87;;;4.70;67.40;;;;;;4968970;28;20419;-80
2021/12/20 01:50:02;;;;;;;16.70;14.90;;;4.70;68.20;;;;;;4968722;28;20937;-80
2021/12/20 01:52:38;;;;;;;22.33;17.63;;;4.70;68.20;;;;;;4969226;28;20461;-80
2021/12/20 01:55:06;;;;;;;21.37;16.70;;;4.70;68.70;;;;;;4969352;28;20426;-81
2021/12/20 01:57:31;;;;;;;19.90;17.07;;;4.70;68.20;;;;;;4968735;28;20422;-80
2021/12/20 01:59:57;;;;;;;18.70;16.70;;;4.70;68.70;;;;;;4968577;28;20409;-80
2021/12/20 02:02:23;;;;;;;18.63;16.00;;;4.70;68.50;;;;;;4968512;28;20210;-81
2021/12/20 02:04:50;;;;;;;21.03;16.80;;;4.70;68.80;;;;;;4969207;28;20257;-80
2021/12/20 02:07:35;;;;;;;20.80;17.37;;;4.70;68.70;;;;;;4968380;28;20414;-80
2021/12/20 02:10:01;;;;;;;18.63;16.63;;;4.80;69.00;;;;;;4968421;28;20425;-80
2021/12/20 02:12:26;;;;;;;18.57;16.57;;;4.80;68.80;;;;;;4968645;28;20424;-80
2021/12/20 02:14:52;;;;;;;19.10;17.03;;;4.70;68.60;;;;;;4968389;28;20429;-81
2021/12/20 02:17:18;;;;;;;21.07;16.93;;;4.80;68.70;;;;;;4968716;28;20181;-81
2021/12/20 02:19:43;;;;;;;17.90;15.33;;;4.80;68.80;;;;;;4968911;28;20286;-80
2021/12/20 02:22:09;;;;;;;17.30;15.50;;;4.80;69.80;;;;;;4968158;28;20264;-80
2021/12/20 02:24:35;;;;;;;18.43;15.73;;;4.80;69.90;;;;;;4967643;28;20241;-80
2021/12/20 02:27:00;;;;;;;19.77;16.07;;;4.80;70.00;;;;;;4968833;28;20178;-80
2021/12/20 02:29:42;;;;;;;21.60;17.67;;;4.80;69.30;;;;;;4968876;28;20183;-80
2021/12/20 02:37:35;;;;;;;19.80;14.93;;;4.70;69.80;;;;;;4969923;28;20976;-80
2021/12/20 02:40:01;;;;;;;16.73;14.33;;;4.60;69.10;;;;;;4968623;28;20438;-80
2021/12/20 02:42:33;;;;;;;17.33;15.47;;;4.60;69.30;;;;;;4967746;28;20211;-81
2021/12/20 02:47:37;;;;;;;17.37;15.03;;;4.50;69.80;;;;;;4969538;28;20417;-80
2021/12/20 02:50:03;;;;;;;16.27;14.50;;;4.50;69.60;;;;;;4968909;28;20425;-81
2021/12/20 02:52:29;;;;;;;17.50;14.13;;;4.50;69.70;;;;;;4967964;28;20764;-81
2021/12/20 02:54:54;;;;;;;18.70;14.90;;;4.60;69.80;;;;;;4968773;28;20477;-79
2021/12/20 02:57:20;;;;;;;20.40;15.70;;;4.60;70.30;;;;;;4968953;28;20183;-79
2021/12/20 02:59:46;;;;;;;18.47;16.37;;;4.60;69.40;;;;;;4970095;28;20233;-80
2021/12/20 03:02:12;;;;;;;17.00;15.13;;;4.60;69.90;;;;;;4968360;28;20211;-80
2021/12/20 03:04:38;;;;;;;16.83;15.13;;;4.60;69.50;;;;;;4969197;28;20214;-80
2021/12/20 03:07:12;;;;;;;18.13;16.20;;;4.60;69.60;;;;;;4971583;28;20175;-80
2021/12/20 03:09:43;;;;;;;16.70;14.60;;;4.60;69.00;;;;;;4972068;28;20859;-80
2021/12/20 03:12:12;;;;;;;17.53;14.13;;;4.60;69.00;;;;;;4971833;28;20933;-80
2021/12/20 03:14:42;;;;;;;17.60;15.47;;;4.60;68.90;;;;;;4971523;28;20850;-79
2021/12/20 03:17:09;;;;;;;17.27;14.53;;;4.70;69.00;;;;;;4971622;28;20524;-80
2021/12/20 03:19:34;;;;;;;18.93;16.63;;;4.70;68.30;;;;;;4971602;28;20453;-79
2021/12/20 03:22:01;;;;;;;19.13;16.20;;;4.70;67.60;;;;;;4971822;28;20470;-80
2021/12/20 03:24:28;;;;;;;17.13;15.30;;;4.70;68.00;;;;;;4971434;28;20422;-81
2021/12/20 03:26:54;;;;;;;18.00;15.83;;;4.70;68.10;;;;;;4971242;28;20426;-82
2021/12/20 03:29:19;;;;;;;17.67;15.77;;;4.70;67.60;;;;;;4971255;28;20755;-81
2021/12/20 03:31:45;;;;;;;14.67;13.17;;;4.70;67.80;;;;;;4972613;28;20415;-81
2021/12/20 03:34:11;;;;;;;17.27;15.00;;;4.60;68.30;;;;;;4971550;28;20182;-81
2021/12/20 03:36:37;;;;;;;16.73;14.20;;;4.60;68.10;;;;;;4970841;28;20194;-81
2021/12/20 03:39:04;;;;;;;17.97;14.87;;;4.60;69.20;;;;;;4971680;28;20418;-81
2021/12/20 03:41:30;;;;;;;18.07;14.60;;;4.50;68.70;;;;;;4969668;28;20206;-81
2021/12/20 03:43:56;;;;;;;17.20;14.70;;;4.50;70.10;;;;;;4971434;28;20418;-81
2021/12/20 03:46:22;;;;;;;19.70;16.80;;;4.60;70.30;;;;;;4970962;28;20671;-81
2021/12/20 03:48:47;;;;;;;24.00;18.30;;;4.50;71.20;;;;;;4970404;28;20310;-81
2021/12/20 03:51:13;;;;;;;21.43;17.93;;;4.40;72.10;;;;;;4970689;28;20214;-81
2021/12/20 03:53:40;;;;;;;21.50;17.67;;;4.40;73.50;;;;;;4955052;28;20675;-81
2021/12/20 03:56:06;;;;;;;20.57;17.10;;;4.30;74.80;;;;;;4970895;28;20679;-81
2021/12/20 03:58:33;;;;;;;21.77;15.60;;;4.30;76.50;;;;;;4970220;28;20640;-82
2021/12/20 04:01:03;;;;;;;26.60;16.53;;;4.30;75.50;;;;;;4970356;28;20540;-81
2021/12/20 04:03:31;;;;;;;20.00;16.60;;;4.30;76.90;;;;;;4970389;28;20795;-81
2021/12/20 04:05:57;;;;;;;19.73;16.40;;;4.20;76.80;;;;;;4970070;28;20457;-81
2021/12/20 04:08:23;;;;;;;21.13;18.17;;;4.30;77.60;;;;;;4970321;28;20422;-81
2021/12/20 04:10:49;;;;;;;22.50;18.27;;;4.30;77.30;;;;;;4970204;28;20848;-81
2021/12/20 04:13:15;;;;;;;22.63;17.43;;;4.30;77.30;;;;;;4969676;28;20421;-81
2021/12/20 04:15:41;;;;;;;21.80;18.57;;;4.30;77.20;;;;;;4969682;28;20225;-81
2021/12/20 04:18:07;;;;;;;26.87;20.07;;;4.30;76.90;;;;;;4969352;28;20430;-81
2021/12/20 04:20:33;;;;;;;20.20;16.47;;;4.30;78.10;;;;;;4970311;28;20238;-82
2021/12/20 04:22:58;;;;;;;21.43;17.07;;;4.20;77.80;;;;;;4970143;28;20262;-82
2021/12/20 04:25:24;;;;;;;24.80;20.30;;;4.30;78.40;;;;;;4970303;28;20529;-81
2021/12/20 04:27:50;;;;;;;24.10;17.73;;;4.30;77.60;;;;;;4970234;28;20190;-81
2021/12/20 04:30:15;;;;;;;20.90;17.03;;;4.30;78.70;;;;;;4970338;28;20175;-83
2021/12/20 04:32:45;;;;;;;22.47;18.73;;;4.20;78.80;;;;;;4971928;28;20178;-81
2021/12/20 04:35:13;;;;;;;21.23;18.30;;;4.30;78.90;;;;;;4970458;28;20186;-82
2021/12/20 04:37:43;;;;;;;22.97;17.50;;;4.40;77.60;;;;;;4970598;28;20891;-83
2021/12/20 04:40:15;;;;;;;22.90;18.90;;;4.40;77.50;;;;;;4970502;28;21071;-82
2021/12/20 04:42:41;;;;;;;22.57;18.57;;;4.40;77.40;;;;;;4970585;28;20430;-82
2021/12/20 04:45:07;;;;;;;18.90;16.10;;;4.50;77.00;;;;;;4970556;28;20437;-82
2021/12/20 04:47:32;;;;;;;20.23;16.67;;;4.50;76.80;;;;;;4970216;28;20179;-82
2021/12/20 04:49:59;;;;;;;22.10;17.23;;;4.30;76.90;;;;;;4970197;28;20430;-82
2021/12/20 04:52:25;;;;;;;21.40;17.70;;;4.40;77.00;;;;;;4971108;28;20190;-82
2021/12/20 04:54:51;;;;;;;21.40;17.57;;;4.40;76.50;;;;;;4971252;28;20426;-82
2021/12/20 04:57:17;;;;;;;20.83;17.37;;;4.40;76.30;;;;;;4971209;28;20425;-81
2021/12/20 04:59:43;;;;;;;19.83;16.93;;;4.40;76.20;;;;;;4970715;28;20245;-82
2021/12/20 05:02:08;;;;;;;18.60;15.67;;;4.40;76.40;;;;;;4971725;28;20465;-82
2021/12/20 05:04:34;;;;;;;19.53;16.00;;;4.40;75.20;;;;;;4972998;28;20173;-82
2021/12/20 05:07:00;;;;;;;20.20;17.23;;;4.50;75.10;;;;;;4972186;28;20190;-82
2021/12/20 05:09:29;;;;;;;19.23;17.17;;;4.40;74.70;;;;;;4972094;28;20185;-82
2021/12/20 05:12:09;;;;;;;21.57;17.00;;;4.40;75.30;;;;;;4970721;28;20189;-82
2021/12/20 05:14:35;;;;;;;22.07;16.50;;;4.40;75.10;;;;;;4968602;28;20481;-83
2021/12/20 05:17:00;;;;;;;20.20;17.40;;;4.50;75.30;;;;;;4970166;28;20418;-81
2021/12/20 05:19:26;;;;;;;20.20;16.20;;;4.50;74.00;;;;;;4966538;28;20207;-82
2021/12/20 05:21:52;;;;;;;20.30;18.10;;;4.50;73.60;;;;;;4951105;28;20214;-82
2021/12/20 05:24:17;;;;;;;21.70;16.13;;;4.50;74.10;;;;;;4967945;28;20210;-82
2021/12/20 05:26:43;;;;;;;21.23;16.33;;;4.50;75.00;;;;;;4966854;28;20182;-82
2021/12/20 05:29:10;;;;;;;17.13;14.70;;;4.50;75.90;;;;;;4965876;28;20183;-82
2021/12/20 05:31:36;;;;;;;20.00;16.13;;;4.50;75.80;;;;;;4967842;28;20179;-83
2021/12/20 05:34:02;;;;;;;19.67;15.83;;;4.60;75.20;;;;;;4967369;28;20451;-83
2021/12/20 05:36:27;;;;;;;22.03;17.33;;;4.60;74.30;;;;;;4967849;28;20526;-82
2021/12/20 05:38:53;;;;;;;20.87;16.67;;;4.50;74.90;;;;;;4967705;28;20555;-82
2021/12/20 05:41:19;;;;;;;20.53;16.00;;;4.60;75.40;;;;;;4967405;28;20217;-82
2021/12/20 05:43:45;;;;;;;17.80;14.47;;;4.60;76.20;;;;;;4952745;28;20202;-83
2021/12/20 05:46:11;;;;;;;17.47;13.90;;;4.60;74.60;;;;;;4967853;28;20314;-83
2021/12/20 05:48:37;;;;;;;20.20;16.70;;;4.60;74.00;;;;;;4967434;28;20865;-84
2021/12/20 05:51:03;;;;;;;21.70;17.93;;;4.60;73.50;;;;;;4967445;28;20986;-83
2021/12/20 05:53:28;;;;;;;20.20;16.13;;;4.60;73.80;;;;;;4967719;28;20207;-82
2021/12/20 05:55:54;;;;;;;21.47;17.50;;;4.60;74.70;;;;;;4967175;28;20659;-82
2021/12/20 05:58:20;;;;;;;19.23;15.03;;;4.60;74.60;;;;;;4967740;28;20183;-83
2021/12/20 06:00:45;;;;;;;20.53;16.20;;;4.70;74.00;;;;;;4967164;28;20515;-82
2021/12/20 06:03:11;;;;;;;22.07;16.67;;;4.60;73.90;;;;;;4967167;28;20206;-82
2021/12/20 06:05:42;;;;;;;22.33;17.87;;;4.60;73.40;;;;;;4967084;28;20179;-82
2021/12/20 06:08:08;;;;;;;20.63;17.47;;;4.60;74.20;;;;;;4967594;28;20179;-82
2021/12/20 06:10:35;;;;;;;21.30;16.73;;;4.60;74.60;;;;;;4966868;28;20430;-82
2021/12/20 06:13:04;;;;;;;20.83;17.20;;;4.70;74.00;;;;;;4967946;28;20425;-82
2021/12/20 06:15:30;;;;;;;21.10;17.20;;;4.60;74.40;;;;;;4967691;28;20521;-82
2021/12/20 06:17:56;;;;;;;24.00;17.17;;;4.60;74.80;;;;;;4968048;28;20419;-82
2021/12/20 06:20:22;;;;;;;20.33;16.20;;;4.60;74.60;;;;;;4968187;28;20423;-83
2021/12/20 06:22:48;;;;;;;20.97;17.30;;;4.70;74.90;;;;;;4968362;28;20466;-82
2021/12/20 06:25:15;;;;;;;22.00;18.57;;;4.70;74.90;;;;;;4953378;28;20403;-82
2021/12/20 06:27:41;;;;;;;21.57;17.37;;;4.70;75.30;;;;;;4968707;28;20458;-83
2021/12/20 06:30:08;;;;;;;20.17;17.83;;;4.70;74.30;;;;;;4968873;28;20471;-82
2021/12/20 06:32:38;;;;;;;21.30;17.10;;;4.70;74.20;;;;;;4968280;28;20451;-83
2021/12/20 06:35:05;;;;;;;22.60;18.20;;;4.70;74.50;;;;;;4953422;28;20796;-83
2021/12/20 06:37:32;;;;;;;20.37;17.53;;;4.70;74.50;;;;;;4967970;28;20539;-83
2021/12/20 06:39:58;;;;;;;22.70;18.77;;;4.70;74.10;;;;;;4968598;28;20977;-83
2021/12/20 06:42:23;;;;;;;19.63;15.60;;;4.70;74.90;;;;;;4971085;28;20844;-83
2021/12/20 06:44:49;;;;;;;20.97;16.33;;;4.80;75.10;;;;;;4971038;28;20418;-83
2021/12/20 06:47:16;;;;;;;20.00;15.50;;;4.70;75.30;;;;;;4971038;28;20635;-83
2021/12/20 06:49:41;;;;;;;17.60;15.07;;;4.70;76.00;;;;;;4970397;28;20551;-83
2021/12/20 06:52:07;;;;;;;18.53;16.60;;;4.70;75.50;;;;;;4971015;28;20423;-84
2021/12/20 06:54:33;;;;;;;19.57;15.50;;;4.70;75.50;;;;;;4970638;28;20195;-84
2021/12/20 06:56:59;;;;;;;18.50;15.93;;;4.70;75.00;;;;;;4970778;28;20435;-81
2021/12/20 06:59:25;;;;;;;20.33;16.90;;;4.70;74.60;;;;;;4970312;28;20215;-82
2021/12/20 07:01:50;;;;;;;19.00;16.00;;;4.70;75.30;;;;;;4970918;28;20644;-82
2021/12/20 07:04:16;;;;;;;21.00;16.60;;;4.70;75.50;;;;;;4970379;28;20183;-82
2021/12/20 07:06:42;;;;;;;19.40;15.97;;;4.80;74.40;;;;;;4970571;28;20203;-80
2021/12/20 07:09:10;;;;;;;18.70;15.10;;;4.80;73.40;;;;;;4970241;28;20419;-83
2021/12/20 07:11:40;;;;;;;23.33;18.03;;;4.80;72.90;;;;;;4970125;28;20770;-83
2021/12/20 07:14:07;;;;;;;21.27;16.33;;;4.80;73.50;;;;;;4968762;28;20473;-83
2021/12/20 07:16:34;;;;;;;22.50;18.27;;;4.80;73.60;;;;;;4952658;29;20422;-83
2021/12/20 07:19:01;;;;;;;26.20;18.37;;;4.80;73.50;;;;;;4953474;28;20959;-83
2021/12/20 07:21:26;;;;;;;22.37;16.83;;;4.80;74.50;;;;;;4953682;28;20521;-83
2021/12/20 07:23:52;;;;;;;21.70;18.63;;;4.80;75.00;;;;;;4954119;28;20912;-83
2021/12/20 07:26:18;;;;;;;19.57;17.37;;;4.70;75.20;;;;;;4953418;28;20789;-83
2021/12/20 07:28:44;;;;;;;21.73;16.30;;;4.70;74.70;;;;;;4953697;28;20183;-83
2021/12/20 07:31:13;;;;;;;22.27;17.40;;;4.70;74.80;;;;;;4953996;28;20175;-83
2021/12/20 07:33:40;;;;;;;21.83;18.00;;;4.70;73.60;;;;;;4953555;29;20450;-82
2021/12/20 07:36:06;;;;;;;19.97;16.77;;;4.60;73.40;;;;;;4953667;29;20800;-82
2021/12/20 07:38:32;;;;;;;21.70;17.80;;;4.60;74.80;;;;;;4953454;28;20423;-83
2021/12/20 07:40:58;;;;;;;21.63;17.60;;;4.60;74.10;;;;;;4953168;28;20469;-83
2021/12/20 07:43:24;;;;;;;20.37;16.83;;;4.60;73.70;;;;;;4953543;28;20779;-82
2021/12/20 07:45:49;;;;;;;22.77;18.70;;;4.50;73.80;;;;;;4953610;28;20411;-82
2021/12/20 07:48:18;;;;;;;20.37;18.23;;;4.50;73.80;;;;;;4953593;29;20175;-81
2021/12/20 07:50:45;;;;;;;18.77;16.20;;;4.50;73.50;;;;;;4953394;28;20652;-82
2021/12/20 07:53:11;;;;;;;22.00;17.07;;;4.50;73.50;;;;;;4953013;28;20415;-83
2021/12/20 07:55:38;;;;;;;23.10;17.37;;;4.50;73.80;;;;;;4953485;28;20518;-81
2021/12/20 07:58:04;;;;;;;21.40;18.20;;;4.50;73.80;;;;;;4954101;28;20928;-82
2021/12/20 08:00:30;;;;;;;24.23;18.13;;;4.50;72.60;;;;;;4953367;29;20418;-79
2021/12/20 08:02:56;;;;;;;22.83;17.90;;;4.40;72.00;;;;;;4954280;29;20412;-82
2021/12/20 08:05:23;;;;;;;24.13;19.33;;;4.40;73.10;;;;;;4953548;28;20426;-81
2021/12/20 08:07:50;;;;;;;20.33;15.83;;;4.40;73.30;;;;;;4955252;28;20446;-82
2021/12/20 08:10:19;;;;;;;20.97;16.50;;;4.40;73.00;;;;;;4953635;28;20514;-82
2021/12/20 08:12:46;;;;;;;22.80;18.53;;;4.40;72.70;;;;;;4953656;29;20940;-81
2021/12/20 08:15:12;;;;;;;23.40;20.20;;;4.50;73.00;;;;;;4953620;29;20967;-82
2021/12/20 08:17:38;;;;;;;21.77;17.70;;;4.50;73.10;;;;;;4954479;28;20419;-81
2021/12/20 08:20:05;;;;;;;18.93;16.93;;;4.50;73.40;;;;;;4954668;28;20410;-82
2021/12/20 08:22:30;;;;;;;20.37;17.73;;;4.60;73.40;;;;;;4952421;28;20298;-82
2021/12/20 08:24:56;;;;;;;20.83;17.20;;;4.60;72.90;;;;;;4952924;28;20554;-81
2021/12/20 08:27:22;;;;;;;26.27;18.93;;;4.60;72.30;;;;;;4953020;28;20176;-82
2021/12/20 08:29:47;;;;;;;20.80;18.30;;;4.60;72.30;;;;;;4953006;28;20197;-81
2021/12/20 08:32:13;;;;;;;20.10;17.10;;;4.70;72.70;;;;;;4952879;29;20210;-82
2021/12/20 08:34:39;;;;;;;20.80;18.10;;;4.60;72.40;;;;;;4953655;29;20183;-80
2021/12/20 08:37:04;;;;;;;22.30;19.20;;;4.60;72.00;;;;;;4954366;28;20190;-83
2021/12/20 08:39:31;;;;;;;23.43;20.00;;;4.60;72.40;;;;;;4957294;28;20648;-88
2021/12/20 08:41:57;;;;;;;23.97;18.23;;;4.70;72.30;;;;;;4961467;28;20743;-88
2021/12/20 08:44:24;;;;;;;20.60;17.13;;;4.70;71.70;;;;;;4963421;28;20782;-88
2021/12/20 08:46:51;;;;;;;25.00;19.60;;;4.80;71.70;;;;;;4958216;28;20411;-80
2021/12/20 08:49:16;;;;;;;27.17;18.20;;;4.80;71.00;;;;;;4951394;28;20419;-82
2021/12/20 08:51:42;;;;;;;22.83;18.73;;;4.80;71.30;;;;;;4952008;28;20946;-81
2021/12/20 08:54:08;;;;;;;23.70;18.93;;;4.80;70.40;;;;;;4951710;28;20186;-80
2021/12/20 08:56:35;;;;;;;23.50;19.73;;;4.80;70.30;;;;;;4951773;28;20429;-81
2021/12/20 08:59:01;;;;;;;21.40;18.17;;;4.80;70.30;;;;;;4951777;28;20502;-82
2021/12/20 09:01:26;;;;;;;21.23;17.40;;;4.80;69.70;;;;;;4951704;28;20462;-80
2021/12/20 09:03:52;;;;;;;27.07;18.67;;;4.80;70.20;;;;;;4951730;28;20955;-80
2021/12/20 09:06:21;;;;;;;22.27;18.17;;;4.70;70.50;;;;;;4953068;28;20203;-79
2021/12/20 09:08:47;;;;;;;25.17;20.37;;;4.70;70.80;;;;;;4951588;28;20230;-81
2021/12/20 09:11:13;;;;;;;25.77;18.33;;;4.80;71.30;;;;;;4951381;28;20423;-83
2021/12/20 09:13:38;;;;;;;24.20;18.20;;;4.80;71.60;;;;;;4951864;28;20226;-83
2021/12/20 09:16:04;;;;;;;25.27;19.37;;;4.80;71.80;;;;;;4951808;28;20207;-83
2021/12/20 09:18:30;;;;;;;26.47;20.13;;;4.80;71.00;;;;;;4952184;28;20242;-82
2021/12/20 09:20:57;;;;;;;22.40;18.40;;;4.80;71.90;;;;;;4951652;28;20203;-82
2021/12/20 09:23:26;;;;;;;24.53;18.90;;;4.80;71.40;;;;;;4951700;28;20248;-80
2021/12/20 09:25:51;;;;;;;23.37;18.27;;;4.80;69.90;;;;;;4951953;28;20451;-81
2021/12/20 09:28:19;;;;;;;23.70;18.57;;;4.90;70.10;;;;;;4950918;28;20411;-80
2021/12/20 09:30:46;;;;;;;22.40;18.97;;;4.90;70.00;;;;;;4950107;28;20179;-81
2021/12/20 09:33:12;;;;;;;27.10;19.90;;;4.80;70.90;;;;;;4951372;28;20800;-82
2021/12/20 09:35:38;;;;;;;24.33;20.90;;;4.80;71.10;;;;;;4951925;28;20415;-81
2021/12/20 09:38:10;;;;;;;24.90;19.13;;;4.80;69.60;;;;;;4952276;28;20465;-82
2021/12/20 09:40:40;;;;;;;22.00;18.37;;;4.80;69.80;;;;;;4952287;28;20427;-82
2021/12/20 09:43:09;;;;;;;24.97;21.00;;;4.80;70.60;;;;;;4953251;28;20434;-82
2021/12/20 09:45:35;;;;;;;28.87;18.13;;;4.80;71.40;;;;;;4953038;28;20494;-82
2021/12/20 09:48:01;;;;;;;24.90;18.80;;;4.80;70.70;;;;;;4952631;29;20903;-82
2021/12/20 09:50:28;;;;;;;24.87;18.97;;;4.80;70.50;;;;;;4952659;28;20426;-82
2021/12/20 09:52:54;;;;;;;22.13;18.30;;;4.80;70.30;;;;;;4952236;28;20171;-82
2021/12/20 09:55:19;;;;;;;22.23;18.23;;;4.80;70.20;;;;;;4953775;29;20407;-81
2021/12/20 09:57:48;;;;;;;23.90;19.63;;;4.80;69.50;;;;;;4952498;28;20200;-82
2021/12/20 10:00:20;;;;;;;25.03;19.30;;;4.80;70.10;;;;;;4952146;28;20234;-82
2021/12/20 10:02:47;;;;;;;24.53;19.70;;;4.80;69.90;;;;;;4952584;28;20423;-82
2021/12/20 10:05:14;;;;;;;25.37;20.80;;;4.90;69.40;;;;;;4951739;28;20452;-82
2021/12/20 10:07:41;;;;;;;28.73;21.20;;;4.80;69.60;;;;;;4951495;28;20866;-81
2021/12/20 10:10:10;;;;;;;26.20;19.90;;;4.80;69.70;;;;;;4951605;28;20423;-81
2021/12/20 10:12:49;;;;;;;24.27;19.57;;;4.80;70.20;;;;;;4952325;28;20473;-83
2021/12/20 10:15:15;;;;;;;25.70;19.60;;;4.80;69.10;;;;;;4952383;28;20478;-82
2021/12/20 10:17:59;;;;;;;25.70;19.40;;;4.90;69.50;;;;;;4955320;28;20427;-83
2021/12/20 10:20:55;;;;;;;26.27;20.73;;;4.90;69.70;;;;;;4955116;28;20934;-84
2021/12/20 10:23:22;;;;;;;22.97;20.03;;;5.00;70.20;;;;;;4955621;29;20473;-83
2021/12/20 10:26:13;;;;;;;25.83;21.97;;;4.90;69.60;;;;;;4955338;28;20423;-83
2021/12/20 10:28:40;;;;;;;28.10;22.27;;;5.00;69.20;;;;;;4951754;28;20498;-83
2021/12/20 10:31:13;;;;;;;25.63;18.67;;;5.00;68.80;;;;;;4955979;28;20421;-84
2021/12/20 10:33:41;;;;;;;26.83;20.30;;;5.10;69.30;;;;;;4956854;28;20427;-84
2021/12/20 10:36:13;;;;;;;23.47;19.40;;;5.10;68.20;;;;;;4954502;28;20840;-83
2021/12/20 10:38:48;;;;;;;26.43;20.70;;;5.10;68.30;;;;;;4954267;29;20419;-83
2021/12/20 10:41:39;;;;;;;25.77;18.83;;;5.10;67.80;;;;;;4954750;28;20546;-84
2021/12/20 10:44:18;;;;;;;26.87;20.03;;;5.10;69.30;;;;;;4954154;28;20415;-83
2021/12/20 10:46:53;;;;;;;23.30;17.50;;;5.20;66.80;;;;;;4954495;29;20422;-84
2021/12/20 10:49:24;;;;;;;27.93;17.93;;;5.20;65.10;;;;;;4954335;28;20505;-83
2021/12/20 10:51:51;;;;;;;20.40;16.40;;;5.10;65.50;;;;;;4955726;28;20414;-84
2021/12/20 10:54:21;;;;;;;20.83;16.00;;;5.20;64.80;;;;;;4954887;28;20429;-84
2021/12/20 10:57:01;;;;;;;16.60;13.37;;;5.20;63.50;;;;;;4954241;29;20632;-84
2021/12/20 10:59:31;;;;;;;15.80;13.50;;;5.20;60.00;;;;;;4954669;28;20863;-83
2021/12/20 11:04:52;;;;;;;13.27;11.87;;;5.10;60.50;;;;;;4955814;28;20419;-84
2021/12/20 11:09:50;;;;;;;12.33;9.77;;;5.10;58.80;;;;;;4956099;28;20959;-84
2021/12/20 11:12:22;;;;;;;15.77;9.80;;;5.10;56.30;;;;;;4954897;28;20469;-84
2021/12/20 11:14:52;;;;;;;16.80;11.83;;;5.00;57.80;;;;;;4954469;29;20439;-85
2021/12/20 11:17:20;;;;;;;14.57;13.00;;;5.00;58.00;;;;;;4954306;29;20868;-85
2021/12/20 11:19:50;;;;;;;15.37;12.47;;;5.00;58.90;;;;;;4954044;29;20462;-84
2021/12/20 11:22:24;;;;;;;15.47;11.10;;;5.00;58.80;;;;;;4953910;28;20481;-83
2021/12/20 11:25:00;;;;;;;13.03;10.80;;;5.00;57.80;;;;;;4954178;28;20465;-84
2021/12/20 11:27:32;;;;;;;11.30;9.70;;;5.00;56.70;;;;;;4946658;28;20426;-86
2021/12/20 11:30:00;;;;;;;13.40;12.00;;;5.00;56.50;;;;;;4953589;28;20426;-84
2021/12/20 11:32:27;;;;;;;13.27;11.60;;;5.10;57.80;;;;;;4953746;29;20485;-84
2021/12/20 11:34:53;;;;;;;15.90;12.50;;;5.20;57.90;;;;;;4953576;28;20518;-84
2021/12/20 11:37:22;;;;;;;14.03;12.17;;;5.20;57.90;;;;;;4953995;29;20779;-86
2021/12/20 11:39:49;;;;;;;14.87;11.37;;;5.30;57.00;;;;;;4953877;29;20514;-85
2021/12/20 11:42:16;;;;;;;16.23;12.90;;;5.30;55.90;;;;;;4953998;28;20489;-85
2021/12/20 11:44:45;;;;;;;13.23;11.00;;;5.30;56.20;;;;;;4953561;29;20473;-84
2021/12/20 11:47:17;;;;;;;15.33;12.60;;;5.40;56.90;;;;;;4954582;29;20415;-85
2021/12/20 11:49:42;;;;;;;16.97;12.60;;;5.60;56.40;;;;;;4954038;29;20978;-82
2021/12/20 11:52:08;;;;;;;17.97;13.17;;;5.70;57.00;;;;;;4953708;29;20518;-84
2021/12/20 11:54:35;;;;;;;15.53;12.53;;;5.80;56.30;;;;;;4954020;29;20237;-85
2021/12/20 11:57:01;;;;;;;15.70;12.07;;;5.80;55.40;;;;;;4953621;28;20184;-85
2021/12/20 11:59:50;;;;;;;14.50;11.60;;;5.90;55.90;;;;;;4952734;28;20439;-84
2021/12/20 12:02:25;;;;;;;18.07;11.47;;;5.90;56.80;;;;;;4953088;28;20499;-84
2021/12/20 12:04:54;;;;;;;15.50;12.10;;;5.90;55.00;;;;;;4954121;29;20461;-83
2021/12/20 12:07:29;;;;;;;17.73;12.70;;;5.80;54.60;;;;;;4954952;29;20438;-85
2021/12/20 12:10:17;;;;;;;17.13;11.70;;;5.80;55.80;;;;;;4955046;29;20407;-86
2021/12/20 12:12:46;;;;;;;14.23;12.43;;;5.60;54.70;;;;;;4955502;28;20396;-86
2021/12/20 12:15:17;;;;;;;14.50;12.30;;;5.60;55.00;;;;;;4954967;28;20444;-84
2021/12/20 12:18:00;;;;;;;14.10;11.87;;;5.60;55.70;;;;;;4954711;29;20403;-85
2021/12/20 12:20:53;;;;;;;18.20;12.13;;;5.60;55.10;;;;;;4953926;28;20431;-85
2021/12/20 12:23:24;;;;;;;12.70;11.50;;;5.60;56.20;;;;;;4954981;28;20437;-84
2021/12/20 12:25:55;;;;;;;16.10;11.70;;;5.50;57.40;;;;;;4953364;29;20414;-84
2021/12/20 12:28:27;;;;;;;16.77;13.50;;;5.50;58.00;;;;;;4953092;29;20403;-85
2021/12/20 12:31:01;;;;;;;15.93;13.00;;;5.50;57.40;;;;;;4953297;28;20430;-84
2021/12/20 12:33:33;;;;;;;14.00;11.43;;;5.50;57.30;;;;;;4953314;28;20427;-83
2021/12/20 12:36:02;;;;;;;16.97;13.60;;;5.40;57.10;;;;;;4953223;28;20439;-85
2021/12/20 12:38:33;;;;;;;19.80;13.20;;;5.50;56.90;;;;;;4952650;28;20426;-85
2021/12/20 12:41:05;;;;;;;15.60;11.30;;;5.40;56.70;;;;;;4953116;28;20533;-86
2021/12/20 12:43:57;;;;;;;15.30;11.87;;;5.40;56.60;;;;;;4953182;28;20749;-85
2021/12/20 12:46:42;;;;;;;12.03;10.17;;;5.40;57.00;;;;;;4955202;29;20474;-85
2021/12/20 12:49:23;;;;;;;12.73;10.00;;;5.40;55.80;;;;;;4955613;28;20419;-83
2021/12/20 12:51:51;;;;;;;13.60;10.27;;;5.30;55.50;;;;;;4953886;28;20861;-85
2021/12/20 12:54:32;;;;;;;14.33;11.90;;;5.30;55.80;;;;;;4953503;29;20467;-85
2021/12/20 12:57:10;;;;;;;10.87;9.57;;;5.40;56.30;;;;;;4952835;29;20423;-86
2021/12/20 12:59:54;;;;;;;16.30;11.83;;;5.40;54.90;;;;;;4952397;29;20423;-84